Latest Weather Observations for Williamson

IDQ60801

Issued at 9:32 am EST Sunday 29 March 2015 (issued every 30 minutes, with the page automatically refreshed every 10 minutes)

About weather observations | Map of weather stations | Latest weather observations for QLD | Other Formats
Station Details ID: 033195 Name: WILLIAMSON Lat: -22.47 Lon: 150.18 Height: 27.6 m
Data from the previous 72 hours. | See also: Recent months at Williamson
Date/Time
EST
Temp
°C
App
Temp
°C
Dew
Point
Rel
Hum
%
Delta-T
°C
Wind Press
QNH
hPa
Press
MSL
hPa
Rain
since 9 am
mm
Dir
 
Spd
km/h
Gust
km/h
Spd
kts
Gust
kts
29/09:30am 28.8 30.7 20.5 61 5.5 SE 11 17 6 9 1019.8 1019.6 0.0
29/09:00am 28.1 29.9 21.1 65 4.6 ESE 13 19 7 10 1019.7 1019.5 0.0
29/08:30am 28.4 31.0 21.9 68 4.4 SE 11 20 6 11 1019.6 1019.4 0.0
29/08:00am 26.3 29.2 21.1 73 3.4 SSE 7 9 4 5 1019.4 1019.2 0.0
29/07:30am 25.3 28.4 21.0 77 2.8 SSE 6 9 3 5 1019.1 1018.9 0.0
29/07:00am 24.0 26.9 21.1 84 1.9 SSW 7 9 4 5 1018.7 1018.5 0.0
29/06:30am 22.5 26.9 21.3 93 0.8 CALM 0 0 0 0 1018.3 1018.1 0.0
29/06:00am 22.3 26.6 21.1 93 0.8 CALM 0 4 0 2 1018.1 1017.9 0.0
29/05:30am 22.8 26.0 21.3 91 1.0 SSE 6 6 3 3 1017.9 1017.7 0.0
29/05:00am 21.7 25.9 20.9 95 0.5 CALM 0 0 0 0 1017.4 1017.2 0.0
29/04:30am 21.5 25.4 20.3 93 0.8 CALM 0 0 0 0 1017.1 1016.9 0.0
29/04:00am 21.7 25.7 20.5 93 0.8 CALM 0 0 0 0 1016.8 1016.6 0.0
29/03:30am 22.4 26.4 20.5 89 1.2 CALM 0 0 0 0 1016.5 1016.3 0.0
29/03:00am 22.6 26.5 20.3 87 1.5 CALM 0 0 0 0 1016.8 1016.6 0.0
29/02:30am 23.7 26.6 20.6 83 2.0 ESE 6 9 3 5 1016.9 1016.7 0.0
29/02:00am 24.0 26.9 20.7 82 2.2 ESE 6 7 3 4 1017.2 1017.0 0.0
29/01:30am 24.3 27.2 20.6 80 2.4 ESE 6 7 3 4 1017.4 1017.2 0.0
29/01:00am 24.7 27.6 20.6 78 2.7 ESE 6 9 3 5 1017.6 1017.4 0.0
29/12:30am 25.1 27.5 20.8 77 2.8 E 9 15 5 8 1017.6 1017.4 0.0
29/12:00am 25.1 28.0 21.0 78 2.7 E 7 11 4 6 1017.9 1017.7 0.0
 
Date/Time
EST
Temp
°C
App
Temp
°C
Dew
Point
Rel
Hum
%
Delta-T
°C
Wind Press
QNH
hPa
Press
MSL
hPa
Rain
since 9 am
mm
Dir
 
Spd
km/h
Gust
km/h
Spd
kts
Gust
kts
28/11:30pm 25.3 28.2 21.0 77 2.8 ENE 7 11 4 6 1018.2 1018.0 0.0
28/11:00pm 25.3 28.4 21.0 77 2.8 E 6 11 3 6 1018.4 1018.2 0.0
28/10:30pm 25.5 28.5 21.2 77 2.8 E 7 11 4 6 1018.4 1018.2 0.0
28/10:00pm 25.9 28.9 21.3 76 3.0 ESE 7 17 4 9 1018.5 1018.3 0.0
28/09:30pm 25.8 28.9 21.5 77 2.9 E 7 13 4 7 1018.5 1018.3 0.0
28/09:00pm 25.9 28.6 21.3 76 3.0 ESE 9 15 5 8 1018.4 1018.2 0.0
28/08:30pm 25.9 28.4 21.1 75 3.2 ESE 9 15 5 8 1018.2 1018.0 0.0
28/08:00pm 25.9 28.2 20.7 73 3.4 E 9 15 5 8 1017.8 1017.6 0.0
28/07:30pm 26.3 28.6 20.6 71 3.7 E 9 17 5 9 1017.4 1017.2 0.0
28/07:00pm 26.7 29.2 20.3 68 4.2 ESE 7 15 4 8 1017.2 1017.0 0.0
28/06:30pm 26.9 29.3 20.0 66 4.5 E 7 13 4 7 1016.7 1016.5 0.0
28/06:00pm 27.5 29.3 20.3 65 4.7 E 11 19 6 10 1016.3 1016.1 0.0
28/05:30pm 28.0 28.6 20.3 63 5.1 ENE 17 28 9 15 1015.8 1015.6 0.0
28/05:00pm 28.8 28.9 20.0 59 5.8 ENE 19 28 10 15 1015.5 1015.3 0.0
28/04:30pm 29.5 29.5 18.9 53 6.9 E 17 26 9 14 1015.5 1015.3 0.0
28/04:00pm 30.0 31.1 19.7 54 6.7 E 13 24 7 13 1015.5 1015.3 0.0
28/03:30pm 30.3 30.7 19.9 53 6.8 ENE 17 28 9 15 1015.5 1015.3 0.0
28/03:00pm 30.2 30.3 19.2 51 7.2 ENE 17 28 9 15 1015.5 1015.3 0.0
28/02:30pm 30.7 30.9 19.4 51 7.4 E 17 30 9 16 1015.5 1015.3 0.0
28/02:00pm 31.1 31.3 19.4 49 7.7 E 17 28 9 15 1015.8 1015.6 0.0
28/01:30pm 31.0 31.6 19.4 50 7.6 ENE 15 30 8 16 1016.1 1015.9 0.0
28/01:00pm 31.3 31.3 19.0 48 8.0 E 17 26 9 14 1016.4 1016.2 0.0
28/12:30pm 31.6 31.9 19.6 49 7.9 ENE 17 26 9 14 1016.7 1016.5 0.0
28/12:00pm 30.3 31.1 19.0 50 7.3 E 13 22 7 12 1017.3 1017.1 0.0
28/11:30am 30.0 31.6 20.0 55 6.6 ESE 11 17 6 9 1017.9 1017.7 0.0
28/11:00am 30.6 32.3 20.2 53 6.9 ENE 11 20 6 11 1018.3 1018.1 0.0
28/10:30am 28.6 30.0 19.5 58 5.9 SE 11 17 6 9 1018.6 1018.4 0.0
28/10:00am 28.9 30.3 19.5 57 6.1 ESE 11 19 6 10 1018.8 1018.6 0.0
28/09:30am 28.8 31.3 21.0 62 5.2 SE 9 13 5 7 1018.9 1018.7 0.0
28/09:00am 27.3 29.6 20.6 67 4.4 SSE 9 17 5 9 1018.7 1018.5 0.0
28/08:30am 26.3 29.2 21.1 73 3.4 S 7 13 4 7 1018.6 1018.4 0.0
28/08:00am 26.0 28.9 21.0 74 3.3 S 7 11 4 6 1018.4 1018.2 0.0
28/07:30am 24.5 27.5 21.2 82 2.2 SSE 7 9 4 5 1018.0 1017.8 0.0
28/07:00am 23.0 25.9 21.1 89 1.2 SSE 7 9 4 5 1017.9 1017.7 0.0
28/06:30am 21.8 24.9 21.1 96 0.5 SSE 6 7 3 4 1017.7 1017.5 0.0
28/06:00am 21.6 25.6 20.6 94 0.6 CALM 0 0 0 0 1017.2 1017.0 0.0
28/05:30am 21.9 24.8 20.7 93 0.8 S 6 7 3 4 1016.8 1016.6 0.0
28/05:00am 22.4 25.5 21.0 92 0.9 SE 6 7 3 4 1016.7 1016.5 0.0
28/04:30am 22.5 25.4 21.1 92 0.9 SSE 7 9 4 5 1016.4 1016.2 0.0
28/04:00am 22.8 26.1 21.4 92 0.9 S 6 7 3 4 1016.2 1016.0 0.0
28/03:30am 22.7 25.6 21.0 90 1.1 SSW 7 9 4 5 1016.2 1016.0 0.0
28/03:00am 23.3 27.7 21.4 89 1.3 CALM 0 0 0 0 1016.1 1015.9 0.0
28/02:30am 23.8 28.2 21.3 86 1.6 CALM 0 0 0 0 1016.3 1016.1 0.0
28/02:00am 24.3 28.1 21.6 85 1.8 WSW 4 9 2 5 1016.5 1016.3 0.0
28/01:30am 24.4 28.6 21.7 85 1.8 NE 2 7 1 4 1016.6 1016.4 0.0
28/01:00am 24.3 28.8 21.6 85 1.8 CALM 0 0 0 0 1016.8 1016.6 0.0
28/12:30am 24.5 28.9 21.4 83 2.0 CALM 0 0 0 0 1017.0 1016.8 0.0
28/12:00am 25.2 28.5 21.5 80 2.5 ENE 6 11 3 6 1017.2 1017.0 0.0
 
Date/Time
EST
Temp
°C
App
Temp
°C
Dew
Point
Rel
Hum
%
Delta-T
°C
Wind Press
QNH
hPa
Press
MSL
hPa
Rain
since 9 am
mm
Dir
 
Spd
km/h
Gust
km/h
Spd
kts
Gust
kts
27/11:30pm 25.5 28.9 21.6 79 2.6 ESE 6 7 3 4 1017.5 1017.3 0.0
27/11:00pm 25.6 28.8 21.7 79 2.6 E 7 13 4 7 1017.6 1017.4 0.0
27/10:30pm 25.7 29.0 21.8 79 2.6 E 7 11 4 6 1017.6 1017.4 0.0
27/10:00pm 25.6 28.5 21.7 79 2.6 E 9 13 5 7 1017.5 1017.3 0.0
27/09:30pm 25.5 30.1 21.8 80 2.5 CALM 0 4 0 2 1017.4 1017.2 0.0
27/09:00pm 25.5 29.2 21.4 78 2.7 N 4 7 2 4 1017.1 1016.9 0.0
27/08:30pm 26.0 29.2 21.2 75 3.2 ENE 6 11 3 6 1016.8 1016.6 0.0
27/08:00pm 26.0 28.9 21.0 74 3.3 ENE 7 11 4 6 1016.7 1016.5 0.0
27/07:30pm 26.4 28.6 20.5 70 3.9 ENE 9 15 5 8 1016.4 1016.2 0.0
27/07:00pm 26.8 28.4 19.9 66 4.5 ENE 11 20 6 11 1016.0 1015.8 0.0
27/06:30pm 27.2 29.5 19.8 64 4.8 ENE 7 13 4 7 1015.7 1015.5 0.0
27/06:00pm 28.1 29.2 19.6 60 5.5 ENE 13 19 7 10 1015.4 1015.2 0.0
27/05:30pm 28.9 29.5 19.5 57 6.1 E 15 20 8 11 1015.1 1014.9 0.0
27/05:00pm 29.9 31.0 19.6 54 6.7 E 13 20 7 11 1014.9 1014.7 0.0
27/04:30pm 29.9 31.5 20.7 57 6.1 N 13 19 7 10 1014.6 1014.4 0.0
27/04:00pm 30.3 31.8 20.5 55 6.5 NNE 13 17 7 9 1014.5 1014.3 0.0
27/03:30pm 30.4 31.6 20.0 53 6.9 NNE 13 20 7 11 1014.3 1014.1 0.0
27/03:00pm 31.0 32.5 20.6 54 6.9 NNE 13 20 7 11 1014.4 1014.2 0.0
27/02:30pm 30.8 32.0 19.8 52 7.2 NE 13 22 7 12 1014.6 1014.4 0.0
27/02:00pm 31.4 33.0 20.7 53 7.1 NNE 13 20 7 11 1014.9 1014.7 0.0
27/01:30pm 31.7 33.1 20.3 50 7.6 N 13 24 7 13 1015.2 1015.0 0.0
27/01:00pm 31.6 33.5 21.4 54 6.9 NNE 13 20 7 11 1015.7 1015.5 0.0
27/12:30pm 30.9 32.8 20.5 54 6.9 NNE 11 19 6 10 1016.2 1016.0 0.0
27/12:00pm 30.1 33.1 20.9 57 6.1 NNE 6 9 3 5 1016.9 1016.7 0.0
27/11:30am 30.2 32.8 20.4 55 6.5 S 7 13 4 7 1017.6 1017.4 0.0
27/11:00am 29.3 31.0 20.2 58 6.0 NE 11 19 6 10 1018.0 1017.8 0.0
27/10:30am 29.4 31.9 20.3 58 6.0 NE 7 13 4 7 1018.6 1018.4 0.0
27/10:00am 28.4 31.2 20.9 64 5.0 E 7 11 4 6 1018.8 1018.6 0.0
27/09:30am 29.7 31.9 21.1 60 5.7 ENE 11 17 6 9 1019.0 1018.8 0.0
27/09:00am 29.3 31.0 20.2 58 6.0 E 11 17 6 9 1018.9 1018.7 0.0
27/08:30am 28.3 31.5 21.3 65 4.7 ESE 6 13 3 7 1018.9 1018.7 0.0
27/08:00am 26.1 30.9 22.2 79 2.6 CALM 0 0 0 0 1018.7 1018.5 0.0
27/07:30am 24.2 28.1 21.9 87 1.5 S 4 6 2 3 1018.5 1018.3 0.0
27/07:00am 23.0 26.2 21.3 90 1.1 SSE 6 9 3 5 1018.4 1018.2 0.0
27/06:30am 22.0 25.4 21.7 98 0.2 SSE 6 7 3 4 1018.2 1018.0 0.0
27/06:00am 21.8 26.1 21.1 96 0.5 CALM 0 0 0 0 1017.8 1017.6 0.0
27/05:30am 22.3 26.9 21.8 97 0.3 CALM 0 6 0 3 1017.4 1017.2 0.0
27/05:00am 22.0 26.2 21.7 98 0.2 SSW 2 7 1 4 1017.1 1016.9 0.0
27/04:30am 22.1 26.6 21.6 97 0.3 CALM 0 0 0 0 1016.7 1016.5 0.0
27/04:00am 22.2 26.7 21.5 96 0.5 CALM 0 0 0 0 1016.4 1016.2 0.0
27/03:30am 22.5 26.7 21.8 96 0.5 WSW 2 9 1 5 1016.4 1016.2 0.0
27/03:00am 22.2 26.6 21.4 95 0.5 CALM 0 0 0 0 1016.5 1016.3 0.0
27/02:30am 22.4 26.9 21.6 95 0.5 CALM 0 0 0 0 1016.6 1016.4 0.0
27/02:00am 22.4 26.6 21.0 92 0.9 CALM 0 0 0 0 1016.8 1016.6 0.0
27/01:30am 23.3 27.8 21.6 90 1.1 CALM 0 0 0 0 1016.9 1016.7 0.0
27/01:00am 24.6 28.4 22.8 90 1.2 E 7 9 4 5 1017.1 1016.9 0.0
27/12:30am 23.1 27.9 22.1 94 0.7 CALM 0 0 0 0 1017.3 1017.1 0.0
27/12:00am 23.2 27.3 22.2 94 0.7 E 4 7 2 4 1017.5 1017.3 0.0
 
Date/Time
EST
Temp
°C
App
Temp
°C
Dew
Point
Rel
Hum
%
Delta-T
°C
Wind Press
QNH
hPa
Press
MSL
hPa
Rain
since 9 am
mm
Dir
 
Spd
km/h
Gust
km/h
Spd
kts
Gust
kts
26/11:30pm 23.4 28.1 22.0 92 0.9 CALM 0 7 0 4 1017.7 1017.5 0.0
26/11:00pm 23.6 27.3 22.2 92 0.9 NE 6 6 3 3 1017.7 1017.5 0.0
26/10:30pm 24.1 27.7 22.0 88 1.4 NE 6 7 3 4 1017.9 1017.7 0.0
26/10:00pm 24.4 28.0 22.1 87 1.5 NE 6 6 3 3 1018.1 1017.9 0.0
26/09:30pm 25.1 28.6 21.8 82 2.2 E 6 7 3 4 1018.1 1017.9 0.0
26/09:00pm 25.5 28.8 21.8 80 2.5 E 7 11 4 6 1017.9 1017.7 0.0
26/08:30pm 25.6 28.6 21.9 80 2.5 E 9 15 5 8 1017.6 1017.4 0.0
26/08:00pm 25.3 29.3 22.0 82 2.2 S 4 7 2 4 1017.3 1017.1 0.0
26/07:30pm 25.9 29.5 22.0 79 2.6 NE 6 7 3 4 1016.8 1016.6 0.0
26/07:00pm 26.3 29.8 21.9 77 2.9 NNE 6 7 3 4 1016.4 1016.2 0.0
26/06:30pm 26.7 29.9 21.7 74 3.3 NE 7 9 4 5 1016.3 1016.1 0.0
26/06:00pm 27.4 30.4 21.2 69 4.1 NNE 7 13 4 7 1016.1 1015.9 0.0
26/05:30pm 28.1 29.8 20.9 65 4.8 NNE 13 19 7 10 1015.7 1015.5 0.0
26/05:00pm 28.8 30.7 20.5 61 5.5 NNE 11 19 6 10 1015.3 1015.1 0.0
26/04:30pm 29.6 31.1 20.5 58 6.0 NNE 13 20 7 11 1015.0 1014.8 0.0
26/04:00pm 30.0 30.6 19.4 53 6.9 NE 15 24 8 13 1014.9 1014.7 0.0
26/03:30pm 30.4 31.2 19.1 50 7.4 NNE 13 20 7 11 1014.8 1014.6 0.0
26/03:00pm 30.7 31.3 19.4 51 7.4 NNE 15 24 8 13 1014.8 1014.6 0.0
26/02:30pm 31.2 31.6 18.2 46 8.4 NE 13 22 7 12 1015.1 1014.9 0.0
26/02:00pm 31.1 32.1 19.4 49 7.7 NNE 13 24 7 13 1015.4 1015.2 0.0
26/01:30pm 31.1 32.4 20.1 52 7.3 NNE 13 30 7 16 1015.7 1015.5 0.0
26/01:00pm 30.0 30.2 19.4 53 6.9 NNE 17 28 9 15 1016.1 1015.9 0.0
26/12:30pm 30.3 31.0 19.6 52 7.0 NE 15 20 8 11 1016.6 1016.4 0.0
26/12:00pm 30.7 31.7 19.4 51 7.4 ENE 13 24 7 13 1017.2 1017.0 0.0
26/11:30am 30.7 31.8 19.7 52 7.2 NNE 13 22 7 12 1017.6 1017.4 0.0
26/11:00am 29.3 30.4 19.6 56 6.3 NNE 13 24 7 13 1017.8 1017.6 0.0
26/10:30am 29.5 30.4 19.2 54 6.7 NE 13 22 7 12 1018.1 1017.9 0.0
26/10:00am 29.1 30.1 19.4 55 6.3 NNE 13 19 7 10 1018.2 1018.0 0.0

Other Formats:

Comma delimited format used in spreadsheet applications
http://www.bom.gov.au/fwo/IDQ60801/IDQ60801.95370.axf

JavaScript Object Notation format (JSON) in row-major order
http://www.bom.gov.au/fwo/IDQ60801/IDQ60801.95370.json